Current Weather

Hanover County Muni

Richmond/Ashland, Virginia (KOFP)

Report from: Wednesday, April 24, 2024 1:54 PM EDT
Current time: Wednesday, April 24, 2024 2:35 PM EDT

Nearby weather – Weather history – Daily summaries
Weather forecast

Temperature22.8°C (73.0°F)
Dew point8.9°C (48.0°F)
Winds 8 kts (4.1 m/s, 9.2 mph) West-Southwest (250°)
Visibility10 mi. (16.1 km)
Clouds Scattered clouds 6,000 ft. (1,829 m)
Altimeter29.96 in.Hg (1015 mB)
Relative humidity41 %
Density altitude1,036 ft. (316 m)
Sea-level pressure101.4 kPa (1014 mB, 29.95 in.Hg)
Max temp last 6 hours22.8°C (73.0°F)
Min temp last 6 hours15.0°C (59.0°F)
Remarks Fully automated report
Automated weather observing station with precipitation discriminator
Pressure falling more quickly
Flight conditions Visual Meteorological Conditions
Raw dataKOFP 241754Z AUTO 25008KT 10SM SCT060 23/09 A2996 RMK AO2 SLP143 T02280089 10228 20150 58006
An error has occurred. This application may no longer respond until reloaded. Reload 🗙